createdAt,value
2023-04-05T00:01:30.826Z,2.81
2023-04-05T00:03:57.937Z,2.72
2023-04-05T00:06:28.512Z,2.71
2023-04-05T00:08:59.337Z,2.68
2023-04-05T00:11:26.794Z,2.61
2023-04-05T00:13:52.637Z,2.56
2023-04-05T00:16:19.780Z,2.53
2023-04-05T00:18:49.137Z,2.71
2023-04-05T00:21:15.935Z,2.55
2023-04-05T00:23:44.255Z,2.56
2023-04-05T00:26:11.680Z,2.70
2023-04-05T00:28:37.471Z,2.77
2023-04-05T00:31:04.786Z,2.91
2023-04-05T00:33:30.722Z,2.70
2023-04-05T00:35:56.661Z,2.54
2023-04-05T00:38:22.671Z,2.59
2023-04-05T00:40:48.577Z,2.61
2023-04-05T00:43:14.703Z,2.53
2023-04-05T00:45:41.773Z,2.45
2023-04-05T00:48:08.152Z,2.43
2023-04-05T00:50:34.396Z,2.34
2023-04-05T00:53:00.555Z,2.32
2023-04-05T00:55:26.440Z,2.07
2023-04-05T00:57:55.432Z,2.16
2023-04-05T01:00:22.398Z,2.13
2023-04-05T01:02:54.372Z,2.22
2023-04-05T01:05:46.556Z,2.05
2023-04-05T01:08:40.028Z,2.11
2023-04-05T01:11:06.310Z,1.93
2023-04-05T01:13:32.683Z,1.87
2023-04-05T01:15:58.755Z,1.99
2023-04-05T01:18:26.394Z,2.00
2023-04-05T01:21:10.953Z,1.88
2023-04-05T01:23:45.519Z,1.71
2023-04-05T01:26:39.803Z,1.76
2023-04-05T01:29:30.031Z,1.60
2023-04-05T01:32:02.386Z,1.66
2023-04-05T01:34:47.001Z,1.83
2023-04-05T01:37:17.312Z,1.90
2023-04-05T01:39:46.768Z,1.87
2023-04-05T01:42:13.025Z,2.08
2023-04-05T01:44:38.971Z,1.87
2023-04-05T01:47:05.048Z,1.96
2023-04-05T01:49:30.919Z,1.79
2023-04-05T01:51:56.746Z,2.05
2023-04-05T01:54:22.676Z,1.75
2023-04-05T01:56:48.560Z,1.85
2023-04-05T01:59:14.459Z,1.80
2023-04-05T02:01:40.442Z,1.93
2023-04-05T02:04:06.394Z,1.79
2023-04-05T02:06:32.227Z,1.60
2023-04-05T02:08:58.021Z,1.62
2023-04-05T02:11:23.807Z,1.62
2023-04-05T02:13:49.664Z,1.54
2023-04-05T02:16:16.556Z,1.66
2023-04-05T02:18:42.948Z,1.65
2023-04-05T02:21:09.896Z,1.83
2023-04-05T02:23:37.218Z,1.43
2023-04-05T02:26:03.328Z,1.54
2023-04-05T02:28:29.205Z,1.44
2023-04-05T02:30:55.434Z,1.48
2023-04-05T02:33:24.410Z,1.48
2023-04-05T02:35:51.340Z,1.54
2023-04-05T02:38:17.749Z,1.46
2023-04-05T02:40:46.529Z,1.43
2023-04-05T02:43:12.430Z,1.57
2023-04-05T02:45:38.329Z,1.44
2023-04-05T02:48:04.378Z,1.45
2023-04-05T02:50:30.252Z,1.40
2023-04-05T02:52:56.012Z,1.21
2023-04-05T02:55:21.793Z,1.21
2023-04-05T02:57:47.570Z,1.28
2023-04-05T03:00:13.962Z,1.21
2023-04-05T03:02:39.854Z,1.30
2023-04-05T03:05:07.086Z,1.29
2023-04-05T03:07:33.078Z,1.24
2023-04-05T03:09:58.882Z,1.09
2023-04-05T03:12:25.097Z,1.16
2023-04-05T03:14:50.902Z,1.18
2023-04-05T03:17:16.946Z,1.38
2023-04-05T03:19:44.752Z,1.30
2023-04-05T03:22:10.545Z,1.24
2023-04-05T03:24:37.033Z,1.40
2023-04-05T03:27:05.327Z,1.19
2023-04-05T03:29:31.363Z,1.20
2023-04-05T03:31:58.670Z,1.22
2023-04-05T03:34:28.101Z,1.12
2023-04-05T03:36:57.043Z,1.24
2023-04-05T03:39:22.880Z,1.28
2023-04-05T03:41:48.652Z,1.14
2023-04-05T03:44:14.615Z,1.01
2023-04-05T03:46:41.754Z,1.25
2023-04-05T03:49:07.747Z,1.28
2023-04-05T03:51:34.096Z,1.21
2023-04-05T03:53:59.902Z,1.31
2023-04-05T03:56:28.308Z,1.21
2023-04-05T03:58:54.275Z,1.27
2023-04-05T04:01:20.698Z,1.31
2023-04-05T04:03:46.602Z,1.26
2023-04-05T04:06:13.099Z,1.01
2023-04-05T04:08:38.969Z,0.97
2023-04-05T04:11:05.780Z,0.92
2023-04-05T04:13:31.699Z,0.99
2023-04-05T04:15:57.618Z,1.14
2023-04-05T04:18:23.521Z,1.10
2023-04-05T04:20:51.520Z,0.87
2023-04-05T04:23:18.695Z,1.01
2023-04-05T04:25:45.387Z,0.90
2023-04-05T04:28:12.225Z,0.94
2023-04-05T04:30:38.243Z,0.91
2023-04-05T04:33:05.984Z,0.98
2023-04-05T04:35:34.225Z,0.76
2023-04-05T04:38:02.083Z,0.74
2023-04-05T04:40:39.194Z,0.90
2023-04-05T04:43:13.682Z,0.70
2023-04-05T04:45:40.151Z,0.73
2023-04-05T04:48:07.422Z,0.77
2023-04-05T04:50:33.748Z,0.66
2023-04-05T04:53:01.169Z,0.58
2023-04-05T04:55:32.761Z,0.47
2023-04-05T04:57:58.963Z,0.42
2023-04-05T05:00:25.439Z,0.42
2023-04-05T05:02:52.452Z,0.50
2023-04-05T05:05:27.614Z,0.47
2023-04-05T05:07:53.584Z,0.55
2023-04-05T05:10:19.781Z,0.59
2023-04-05T05:12:45.787Z,0.55
2023-04-05T05:15:11.845Z,0.44
2023-04-05T05:17:38.895Z,0.35
2023-04-05T05:20:09.833Z,0.35
2023-04-05T05:22:37.216Z,0.36
2023-04-05T05:25:04.832Z,0.50
2023-04-05T05:27:30.993Z,0.47
2023-04-05T05:29:56.794Z,0.40
2023-04-05T05:32:22.738Z,0.35
2023-04-05T05:34:48.825Z,0.47
2023-04-05T05:37:16.461Z,0.35
2023-04-05T05:39:44.060Z,0.62
2023-04-05T05:42:10.534Z,0.65
2023-04-05T05:44:36.513Z,0.66
2023-04-05T05:47:02.879Z,0.61
2023-04-05T05:49:29.001Z,0.55
2023-04-05T05:51:56.058Z,0.56
2023-04-05T05:54:22.000Z,0.63
2023-04-05T05:56:47.927Z,0.57
2023-04-05T05:59:14.223Z,0.63
2023-04-05T06:01:41.932Z,0.76
2023-04-05T06:04:08.764Z,0.87
2023-04-05T06:06:37.295Z,1.03
2023-04-05T06:09:03.865Z,0.89
2023-04-05T06:11:29.666Z,1.00
2023-04-05T06:13:55.470Z,0.93
2023-04-05T06:16:21.930Z,1.02
2023-04-05T06:18:48.034Z,1.11
2023-04-05T06:21:14.383Z,1.22
2023-04-05T06:23:41.439Z,1.25
2023-04-05T06:26:08.166Z,1.24
2023-04-05T06:28:34.186Z,1.14
2023-04-05T06:31:00.257Z,1.19
2023-04-05T06:33:26.344Z,1.25
2023-04-05T06:35:52.458Z,1.26
2023-04-05T06:38:18.420Z,1.56
2023-04-05T06:40:44.425Z,1.27
2023-04-05T06:43:10.395Z,1.16
2023-04-05T06:45:36.701Z,1.51
2023-04-05T06:48:02.783Z,1.47
2023-04-05T06:50:28.684Z,1.48
2023-04-05T06:52:54.503Z,1.41
2023-04-05T06:55:21.135Z,1.38
2023-04-05T06:57:47.106Z,1.63
2023-04-05T07:00:15.382Z,1.65
2023-04-05T07:02:41.316Z,1.72
2023-04-05T07:05:08.182Z,2.04
2023-04-05T07:07:38.511Z,1.93
2023-04-05T07:10:05.017Z,2.07
2023-04-05T07:12:31.593Z,2.17
2023-04-05T07:14:59.225Z,2.22
2023-04-05T07:17:25.473Z,2.32
2023-04-05T07:19:51.290Z,2.35
2023-04-05T07:22:17.079Z,2.48
2023-04-05T07:24:44.616Z,2.51
2023-04-05T07:27:10.438Z,2.66
2023-04-05T07:29:39.932Z,2.48
2023-04-05T07:32:07.235Z,2.61
2023-04-05T07:34:34.453Z,2.71
2023-04-05T07:37:00.397Z,2.84
2023-04-05T07:39:26.352Z,2.85
2023-04-05T07:41:52.114Z,3.02
2023-04-05T07:44:17.937Z,3.12
2023-04-05T07:46:47.557Z,3.21
2023-04-05T07:49:14.846Z,3.41
2023-04-05T07:51:42.351Z,3.41
2023-04-05T07:54:08.184Z,3.57
2023-04-05T07:56:36.623Z,3.60
2023-04-05T07:59:02.459Z,3.55
2023-04-05T08:01:28.890Z,3.59
2023-04-05T08:03:56.767Z,3.73
2023-04-05T08:06:23.978Z,3.70
2023-04-05T08:08:50.328Z,3.67
2023-04-05T08:11:16.180Z,3.68
2023-04-05T08:13:42.251Z,3.71
2023-04-05T08:16:09.057Z,3.75
2023-04-05T08:18:35.161Z,3.90
2023-04-05T08:21:01.125Z,3.85
2023-04-05T08:23:26.991Z,3.92
2023-04-05T08:25:53.539Z,3.93
2023-04-05T08:28:19.865Z,3.90
2023-04-05T08:30:45.904Z,3.91
2023-04-05T08:33:11.822Z,3.94
2023-04-05T08:35:38.593Z,3.91
2023-04-05T08:38:06.052Z,4.04
2023-04-05T08:40:45.012Z,4.10
2023-04-05T08:43:59.349Z,4.32
2023-04-05T08:46:26.512Z,4.34
2023-04-05T08:48:52.398Z,4.06
2023-04-05T08:51:22.381Z,4.26
2023-04-05T08:53:48.504Z,4.20
2023-04-05T08:56:24.719Z,4.26
2023-04-05T08:59:11.243Z,4.39
2023-04-05T09:01:41.435Z,4.28
2023-04-05T09:04:13.462Z,4.36
2023-04-05T09:06:39.764Z,4.42
2023-04-05T09:09:07.540Z,4.62
2023-04-05T09:11:34.823Z,4.49
2023-04-05T09:14:04.995Z,4.60
2023-04-05T09:16:33.219Z,4.88
2023-04-05T09:18:59.164Z,5.02
2023-04-05T09:21:28.845Z,4.71
2023-04-05T09:23:55.097Z,4.90
2023-04-05T09:26:23.537Z,4.89
2023-04-05T09:28:49.933Z,4.87
2023-04-05T09:31:36.207Z,4.98
2023-04-05T09:34:06.388Z,5.27
2023-04-05T09:36:36.661Z,5.49
2023-04-05T09:39:06.843Z,5.50
2023-04-05T09:41:34.198Z,5.80
2023-04-05T09:44:00.587Z,5.72
2023-04-05T09:46:36.460Z,5.94
2023-04-05T09:49:03.282Z,5.67
2023-04-05T09:51:37.236Z,5.89
2023-04-05T09:54:10.592Z,5.96
2023-04-05T09:56:38.612Z,6.16
2023-04-05T09:59:11.754Z,6.35
2023-04-05T10:01:42.442Z,6.48
2023-04-05T10:04:08.579Z,6.70
2023-04-05T10:06:52.771Z,6.57
2023-04-05T10:09:19.089Z,6.69
2023-04-05T10:11:45.460Z,6.99
2023-04-05T10:14:11.319Z,7.25
2023-04-05T10:17:03.974Z,7.35
2023-04-05T10:19:44.491Z,7.70
2023-04-05T10:22:16.983Z,8.52
2023-04-05T10:24:51.382Z,8.72
2023-04-05T10:27:39.706Z,9.01
2023-04-05T10:30:08.505Z,9.48
2023-04-05T10:32:52.559Z,9.82
2023-04-05T10:35:42.858Z,10.07
2023-04-05T10:38:26.112Z,10.44
2023-04-05T10:40:55.974Z,10.55
2023-04-05T10:43:25.032Z,10.51
2023-04-05T10:45:53.086Z,11.00
2023-04-05T10:48:54.782Z,11.40
2023-04-05T10:51:27.380Z,11.38
2023-04-05T10:53:55.531Z,12.04
2023-04-05T10:56:22.055Z,12.03
2023-04-05T10:58:49.886Z,13.03
2023-04-05T11:01:16.843Z,12.56
2023-04-05T11:03:49.842Z,12.33
2023-04-05T11:06:20.248Z,12.43
2023-04-05T11:08:47.460Z,12.91
2023-04-05T11:11:16.222Z,13.09
2023-04-05T11:13:52.584Z,12.95
2023-04-05T11:16:18.877Z,13.38
2023-04-05T11:18:47.109Z,13.23
2023-04-05T11:21:21.502Z,13.23
2023-04-05T11:24:08.045Z,13.77
2023-04-05T11:26:53.665Z,13.70
2023-04-05T11:29:47.496Z,13.06
2023-04-05T11:32:13.399Z,13.50
2023-04-05T11:34:41.691Z,13.86
2023-04-05T11:37:08.699Z,14.27
2023-04-05T11:39:36.599Z,14.87
2023-04-05T11:42:11.546Z,14.01
2023-04-05T11:44:47.094Z,14.30
2023-04-05T11:47:15.971Z,14.48
2023-04-05T11:49:41.808Z,14.46
2023-04-05T11:52:11.815Z,13.47
2023-04-05T11:54:39.098Z,14.05
2023-04-05T11:57:06.205Z,14.70
2023-04-05T11:59:33.860Z,15.05
2023-04-05T12:02:08.441Z,14.68
2023-04-05T12:04:36.011Z,15.49
2023-04-05T12:07:19.158Z,14.96
2023-04-05T12:10:06.355Z,14.05
2023-04-05T12:12:37.573Z,13.56
2023-04-05T12:15:05.035Z,11.74
2023-04-05T12:17:38.532Z,11.32
2023-04-05T12:20:05.574Z,11.57
2023-04-05T12:22:31.806Z,11.47
2023-04-05T12:24:57.857Z,11.24
2023-04-05T12:27:24.682Z,11.16
2023-04-05T12:30:18.598Z,11.45
2023-04-05T12:32:44.532Z,11.89
2023-04-05T12:35:12.202Z,11.72
2023-04-05T12:37:39.708Z,11.33
2023-04-05T12:40:06.114Z,10.69
2023-04-05T12:42:36.786Z,10.64
2023-04-05T12:45:10.391Z,10.43
2023-04-05T12:48:14.958Z,10.34
2023-04-05T12:50:47.971Z,9.89
2023-04-05T12:53:19.750Z,9.86
2023-04-05T12:55:56.180Z,10.09
2023-04-05T12:58:31.407Z,10.17
2023-04-05T13:00:58.031Z,9.92
2023-04-05T13:03:26.495Z,10.30
2023-04-05T13:05:52.680Z,10.25
2023-04-05T13:08:18.881Z,10.15
2023-04-05T13:10:45.893Z,10.82
2023-04-05T13:13:13.251Z,11.33
2023-04-05T13:15:39.341Z,12.24
2023-04-05T13:18:05.557Z,12.44
2023-04-05T13:20:31.869Z,12.90
2023-04-05T13:22:58.072Z,13.29
2023-04-05T13:25:24.063Z,12.90
2023-04-05T13:27:50.204Z,12.74
2023-04-05T13:30:16.512Z,11.82
2023-04-05T13:32:42.520Z,11.65
2023-04-05T13:35:08.640Z,11.19
2023-04-05T13:37:35.470Z,11.05
2023-04-05T13:40:01.384Z,10.98
2023-04-05T13:42:27.457Z,10.78
2023-04-05T13:44:54.404Z,10.93
2023-04-05T13:47:20.239Z,10.60
2023-04-05T13:49:46.300Z,10.66
2023-04-05T13:52:12.305Z,10.53
2023-04-05T13:54:38.200Z,10.35
2023-04-05T13:57:04.870Z,9.95
2023-04-05T13:59:30.792Z,9.85
2023-04-05T14:01:57.063Z,9.96
2023-04-05T14:04:23.050Z,9.95
2023-04-05T14:06:48.919Z,10.12
2023-04-05T14:09:14.910Z,9.99
2023-04-05T14:11:40.843Z,9.94
2023-04-05T14:14:06.750Z,10.00
2023-04-05T14:16:32.775Z,9.86
2023-04-05T14:18:58.640Z,9.98
2023-04-05T14:21:25.242Z,9.93
2023-04-05T14:23:56.104Z,9.91
2023-04-05T14:26:26.282Z,9.94
2023-04-05T14:28:52.905Z,10.00
2023-04-05T14:31:20.063Z,9.81
2023-04-05T14:33:46.156Z,9.59
2023-04-05T14:36:12.175Z,9.59
2023-04-05T14:38:38.005Z,9.70
2023-04-05T14:41:05.338Z,10.51
2023-04-05T14:43:31.430Z,10.45
2023-04-05T14:45:57.413Z,10.30
2023-04-05T14:48:23.452Z,10.21
2023-04-05T14:50:50.106Z,9.90
2023-04-05T14:53:16.227Z,10.00
2023-04-05T14:55:42.096Z,9.87
2023-04-05T14:58:07.967Z,9.76
2023-04-05T15:00:35.044Z,9.87
2023-04-05T15:03:01.068Z,10.05
2023-04-05T15:05:27.072Z,9.99
2023-04-05T15:07:52.973Z,10.23
2023-04-05T15:10:19.522Z,10.32
2023-04-05T15:12:45.604Z,10.17
2023-04-05T15:15:11.497Z,10.55
2023-04-05T15:17:37.532Z,10.48
2023-04-05T15:20:03.738Z,10.71
2023-04-05T15:22:30.134Z,11.36
2023-04-05T15:24:56.631Z,11.89
2023-04-05T15:27:22.619Z,12.02
2023-04-05T15:29:48.588Z,12.11
2023-04-05T15:32:15.401Z,12.26
2023-04-05T15:34:41.348Z,12.20
2023-04-05T15:37:07.292Z,12.53
2023-04-05T15:39:33.209Z,12.96
2023-04-05T15:42:02.257Z,12.78
2023-04-05T15:44:28.287Z,12.97
2023-04-05T15:46:54.191Z,12.28
2023-04-05T15:49:20.133Z,12.01
2023-04-05T15:51:46.067Z,12.05
2023-04-05T15:54:17.713Z,12.35
2023-04-05T15:56:44.224Z,12.42
2023-04-05T15:59:10.438Z,12.72
2023-04-05T16:01:37.028Z,12.85
2023-04-05T16:04:03.843Z,12.95
2023-04-05T16:06:30.724Z,13.03
2023-04-05T16:08:56.800Z,12.29
2023-04-05T16:11:22.986Z,12.20
2023-04-05T16:13:49.135Z,11.94
2023-04-05T16:16:20.423Z,12.30
2023-04-05T16:18:53.880Z,12.53
2023-04-05T16:21:19.947Z,12.56
2023-04-05T16:23:46.030Z,12.28
2023-04-05T16:26:12.961Z,12.50
2023-04-05T16:28:39.376Z,12.39
2023-04-05T16:31:05.322Z,12.10
2023-04-05T16:33:31.297Z,11.89
2023-04-05T16:35:58.198Z,11.93
2023-04-05T16:38:24.773Z,11.53
2023-04-05T16:40:50.641Z,11.00
2023-04-05T16:43:16.643Z,10.57
2023-04-05T16:45:43.480Z,10.47
2023-04-05T16:48:09.780Z,10.19
2023-04-05T16:50:36.634Z,10.11
2023-04-05T16:53:02.696Z,9.84
2023-04-05T16:55:28.598Z,9.64
2023-04-05T16:57:56.378Z,9.66
2023-04-05T17:00:23.191Z,9.73
2023-04-05T17:02:50.099Z,9.71
2023-04-05T17:05:16.393Z,9.55
2023-04-05T17:07:42.364Z,9.36
2023-04-05T17:10:08.852Z,9.27
2023-04-05T17:12:35.700Z,9.31
2023-04-05T17:15:02.298Z,9.26
2023-04-05T17:17:28.569Z,9.33
2023-04-05T17:19:54.686Z,9.14
2023-04-05T17:22:20.651Z,9.04
2023-04-05T17:24:46.573Z,8.96
2023-04-05T17:27:12.486Z,8.92
2023-04-05T17:29:38.869Z,8.86
2023-04-05T17:32:06.116Z,8.74
2023-04-05T17:34:32.140Z,8.69
2023-04-05T17:36:58.194Z,8.70
2023-04-05T17:39:24.771Z,8.65
2023-04-05T17:41:53.882Z,8.46
2023-04-05T17:44:19.917Z,8.33
2023-04-05T17:46:53.968Z,8.27
2023-04-05T17:49:23.534Z,8.24
2023-04-05T17:51:49.663Z,8.11
2023-04-05T17:54:15.908Z,8.23
2023-04-05T17:56:42.178Z,8.15
2023-04-05T17:59:08.637Z,7.97
2023-04-05T18:01:35.182Z,7.88
2023-04-05T18:04:01.707Z,7.82
2023-04-05T18:06:29.027Z,7.73
2023-04-05T18:08:55.030Z,7.60
2023-04-05T18:11:21.175Z,7.49
2023-04-05T18:13:47.218Z,7.51
2023-04-05T18:16:13.319Z,7.52
2023-04-05T18:18:39.325Z,7.43
2023-04-05T18:21:05.513Z,7.46
2023-04-05T18:23:31.564Z,7.38
2023-04-05T18:25:57.628Z,7.32
2023-04-05T18:28:23.901Z,7.26
2023-04-05T18:30:50.513Z,7.32
2023-04-05T18:33:17.022Z,7.30
2023-04-05T18:35:48.869Z,6.94
2023-04-05T18:38:15.113Z,6.90
2023-04-05T18:40:42.275Z,6.96
2023-04-05T18:43:08.377Z,6.89
2023-04-05T18:45:37.246Z,6.84
2023-04-05T18:48:03.451Z,6.90
2023-04-05T18:50:29.695Z,6.97
2023-04-05T18:52:55.708Z,6.87
2023-04-05T18:55:21.846Z,6.74
2023-04-05T18:57:47.813Z,6.70
2023-04-05T19:00:14.163Z,6.76
2023-04-05T19:02:40.737Z,6.61
2023-04-05T19:05:07.189Z,6.60
2023-04-05T19:07:33.196Z,6.48
2023-04-05T19:09:59.562Z,6.36
2023-04-05T19:12:25.532Z,6.42
2023-04-05T19:14:51.517Z,6.41
2023-04-05T19:17:17.653Z,6.28
2023-04-05T19:19:43.795Z,6.28
2023-04-05T19:22:10.611Z,6.24
2023-04-05T19:24:39.278Z,6.29
2023-04-05T19:27:05.499Z,6.33
2023-04-05T19:29:34.403Z,6.29
2023-04-05T19:32:00.595Z,6.24
2023-04-05T19:34:26.702Z,6.07
2023-04-05T19:36:52.807Z,6.10
2023-04-05T19:39:25.361Z,6.09
2023-04-05T19:41:51.729Z,6.04
2023-04-05T19:44:36.994Z,5.98
2023-04-05T19:47:13.493Z,5.87
2023-04-05T19:49:41.645Z,5.65
2023-04-05T19:52:33.393Z,5.62
2023-04-05T19:55:00.836Z,5.44
2023-04-05T19:57:28.097Z,5.43
2023-04-05T19:59:54.304Z,5.40
2023-04-05T20:02:38.275Z,5.44
2023-04-05T20:05:13.395Z,5.38
2023-04-05T20:07:39.433Z,5.40
2023-04-05T20:10:35.330Z,5.36
2023-04-05T20:13:01.595Z,5.41
2023-04-05T20:15:35.838Z,5.31
2023-04-05T20:18:03.751Z,5.33
2023-04-05T20:20:30.492Z,5.44
2023-04-05T20:22:57.235Z,5.40
2023-04-05T20:25:37.000Z,5.40
2023-04-05T20:28:21.237Z,5.34
2023-04-05T20:30:47.221Z,5.26
2023-04-05T20:33:50.107Z,5.30
2023-04-05T20:36:19.036Z,5.23
2023-04-05T20:38:45.984Z,5.18
2023-04-05T20:41:13.495Z,5.18
2023-04-05T20:43:41.206Z,5.16
2023-04-05T20:46:07.690Z,5.21
2023-04-05T20:48:34.908Z,4.97
2023-04-05T20:51:02.873Z,4.77
2023-04-05T20:53:29.526Z,4.74
2023-04-05T20:55:56.033Z,4.82
2023-04-05T20:58:22.304Z,4.91
2023-04-05T21:00:48.609Z,4.80
2023-04-05T21:03:15.279Z,4.87
2023-04-05T21:05:41.449Z,4.91
2023-04-05T21:08:07.526Z,4.79
2023-04-05T21:10:34.156Z,4.69
2023-04-05T21:13:00.279Z,4.75
2023-04-05T21:15:33.881Z,4.67
2023-04-05T21:18:05.210Z,4.61
2023-04-05T21:20:31.408Z,4.64
2023-04-05T21:22:58.486Z,4.82
2023-04-05T21:25:24.907Z,4.66
2023-04-05T21:27:51.274Z,4.78
2023-04-05T21:30:17.664Z,4.76
2023-04-05T21:32:44.418Z,4.86
2023-04-05T21:35:10.939Z,4.82
2023-04-05T21:37:37.069Z,4.76
2023-04-05T21:40:03.749Z,4.71
2023-04-05T21:42:31.151Z,4.66
2023-04-05T21:44:57.384Z,4.66
2023-04-05T21:47:23.541Z,4.66
2023-04-05T21:49:49.983Z,4.49
2023-04-05T21:52:15.949Z,4.40
2023-04-05T21:54:42.010Z,4.42
2023-04-05T21:57:07.953Z,4.42
2023-04-05T21:59:34.073Z,4.48
2023-04-05T22:02:00.816Z,4.52
2023-04-05T22:04:28.360Z,4.34
2023-04-05T22:06:55.164Z,4.40
2023-04-05T22:09:21.431Z,4.43
2023-04-05T22:11:49.596Z,4.48
2023-04-05T22:14:15.733Z,4.27
2023-04-05T22:16:42.047Z,3.97
2023-04-05T22:19:11.015Z,3.87
2023-04-05T22:21:37.299Z,3.46
2023-04-05T22:24:03.311Z,3.30
2023-04-05T22:26:29.472Z,3.12
2023-04-05T22:28:55.608Z,3.11
2023-04-05T22:31:21.584Z,3.27
2023-04-05T22:33:47.671Z,3.41
2023-04-05T22:36:13.704Z,3.46
2023-04-05T22:38:39.789Z,3.37
2023-04-05T22:41:05.845Z,3.57
2023-04-05T22:43:31.872Z,3.43
2023-04-05T22:45:57.887Z,3.45
2023-04-05T22:48:23.861Z,3.58
2023-04-05T22:50:50.855Z,3.64
2023-04-05T22:53:17.091Z,3.63
2023-04-05T22:55:43.160Z,3.73
2023-04-05T22:58:09.724Z,3.77
2023-04-05T23:00:36.732Z,3.76
2023-04-05T23:03:03.263Z,3.73
2023-04-05T23:05:29.307Z,3.66
2023-04-05T23:07:55.618Z,3.72
2023-04-05T23:10:21.656Z,3.50
2023-04-05T23:12:48.020Z,3.71
2023-04-05T23:15:14.489Z,3.71
2023-04-05T23:17:40.640Z,3.72
2023-04-05T23:20:08.664Z,3.62
2023-04-05T23:22:35.489Z,3.67
2023-04-05T23:25:03.622Z,3.77
2023-04-05T23:27:30.775Z,3.64
2023-04-05T23:29:56.945Z,3.56
2023-04-05T23:32:22.992Z,3.58
2023-04-05T23:34:49.375Z,3.65
2023-04-05T23:37:15.941Z,3.64
2023-04-05T23:39:42.466Z,3.40
2023-04-05T23:42:09.149Z,3.43
2023-04-05T23:44:36.831Z,3.41
2023-04-05T23:47:04.369Z,3.47
2023-04-05T23:49:30.455Z,3.40
2023-04-05T23:51:56.411Z,3.48
2023-04-05T23:54:22.428Z,3.34
2023-04-05T23:56:48.617Z,3.32
2023-04-05T23:59:15.184Z,3.44
